sensor_id;sensor_type;location;lat;lon;timestamp;temperature;humidity
25320;DHT22;13256;49.012;8.610;2023-07-22T00:00:23;15.90;99.90
25320;DHT22;13256;49.012;8.610;2023-07-22T00:06:11;16.00;99.90
25320;DHT22;13256;49.012;8.610;2023-07-22T00:08:38;16.10;99.90
25320;DHT22;13256;49.012;8.610;2023-07-22T00:11:07;16.10;99.90
25320;DHT22;13256;49.012;8.610;2023-07-22T00:13:38;16.00;99.90
25320;DHT22;13256;49.012;8.610;2023-07-22T00:16:08;15.90;99.90
25320;DHT22;13256;49.012;8.610;2023-07-22T00:18:35;15.80;99.90
25320;DHT22;13256;49.012;8.610;2023-07-22T00:21:05;15.70;99.90
25320;DHT22;13256;49.012;8.610;2023-07-22T00:23:36;15.60;99.90
25320;DHT22;13256;49.012;8.610;2023-07-22T00:26:04;15.60;99.90
25320;DHT22;13256;49.012;8.610;2023-07-22T00:28:33;15.60;99.90
25320;DHT22;13256;49.012;8.610;2023-07-22T00:31:06;15.60;99.90
25320;DHT22;13256;49.012;8.610;2023-07-22T00:34:03;15.60;99.90
25320;DHT22;13256;49.012;8.610;2023-07-22T00:36:31;15.60;99.90
25320;DHT22;13256;49.012;8.610;2023-07-22T00:39:02;15.60;99.90
25320;DHT22;13256;49.012;8.610;2023-07-22T00:41:30;15.60;99.90
25320;DHT22;13256;49.012;8.610;2023-07-22T00:44:00;15.70;99.90
25320;DHT22;13256;49.012;8.610;2023-07-22T00:46:32;15.70;99.90
25320;DHT22;13256;49.012;8.610;2023-07-22T00:49:04;15.80;99.90
25320;DHT22;13256;49.012;8.610;2023-07-22T00:51:34;15.70;99.90
25320;DHT22;13256;49.012;8.610;2023-07-22T00:54:02;15.70;99.90
25320;DHT22;13256;49.012;8.610;2023-07-22T00:56:36;15.60;99.90
25320;DHT22;13256;49.012;8.610;2023-07-22T00:59:04;15.60;99.90
25320;DHT22;13256;49.012;8.610;2023-07-22T01:01:33;15.50;99.90
25320;DHT22;13256;49.012;8.610;2023-07-22T01:04:00;15.50;99.90
25320;DHT22;13256;49.012;8.610;2023-07-22T01:06:55;15.50;99.90
25320;DHT22;13256;49.012;8.610;2023-07-22T01:09:42;15.50;99.90
25320;DHT22;13256;49.012;8.610;2023-07-22T01:30:25;15.80;99.90
25320;DHT22;13256;49.012;8.610;2023-07-22T01:32:58;15.80;99.90
25320;DHT22;13256;49.012;8.610;2023-07-22T01:35:28;15.70;99.90
25320;DHT22;13256;49.012;8.610;2023-07-22T01:37:55;15.60;99.90
25320;DHT22;13256;49.012;8.610;2023-07-22T01:43:42;15.40;99.90
25320;DHT22;13256;49.012;8.610;2023-07-22T01:53:43;15.20;99.90
25320;DHT22;13256;49.012;8.610;2023-07-22T01:56:18;15.20;99.90
25320;DHT22;13256;49.012;8.610;2023-07-22T02:02:14;15.20;99.90
25320;DHT22;13256;49.012;8.610;2023-07-22T02:04:44;15.20;99.90
25320;DHT22;13256;49.012;8.610;2023-07-22T02:07:40;15.30;99.90
25320;DHT22;13256;49.012;8.610;2023-07-22T02:10:16;15.30;99.90
25320;DHT22;13256;49.012;8.610;2023-07-22T02:12:50;15.30;99.90
25320;DHT22;13256;49.012;8.610;2023-07-22T02:15:19;15.30;99.90
25320;DHT22;13256;49.012;8.610;2023-07-22T02:18:14;15.30;99.90
25320;DHT22;13256;49.012;8.610;2023-07-22T02:20:44;15.30;99.90
25320;DHT22;13256;49.012;8.610;2023-07-22T02:23:17;15.30;99.90
25320;DHT22;13256;49.012;8.610;2023-07-22T02:25:48;15.20;99.90
25320;DHT22;13256;49.012;8.610;2023-07-22T02:28:19;15.10;99.90
25320;DHT22;13256;49.012;8.610;2023-07-22T02:30:53;15.00;99.90
25320;DHT22;13256;49.012;8.610;2023-07-22T02:33:22;14.90;99.90
25320;DHT22;13256;49.012;8.610;2023-07-22T02:35:49;14.70;99.90
25320;DHT22;13256;49.012;8.610;2023-07-22T02:38:16;14.60;99.90
25320;DHT22;13256;49.012;8.610;2023-07-22T02:40:46;14.50;99.90
25320;DHT22;13256;49.012;8.610;2023-07-22T02:43:19;14.40;99.90
25320;DHT22;13256;49.012;8.610;2023-07-22T02:45:45;14.30;99.90
25320;DHT22;13256;49.012;8.610;2023-07-22T02:48:20;14.20;99.90
25320;DHT22;13256;49.012;8.610;2023-07-22T02:50:47;14.20;99.90
25320;DHT22;13256;49.012;8.610;2023-07-22T02:53:19;14.20;99.90
25320;DHT22;13256;49.012;8.610;2023-07-22T02:55:45;14.20;99.90
25320;DHT22;13256;49.012;8.610;2023-07-22T02:58:37;14.20;99.90
25320;DHT22;13256;49.012;8.610;2023-07-22T03:01:05;14.10;99.90
25320;DHT22;13256;49.012;8.610;2023-07-22T03:03:35;14.20;99.90
25320;DHT22;13256;49.012;8.610;2023-07-22T03:06:07;14.10;99.90
25320;DHT22;13256;49.012;8.610;2023-07-22T03:08:35;14.00;99.90
25320;DHT22;13256;49.012;8.610;2023-07-22T03:11:04;13.90;99.90
25320;DHT22;13256;49.012;8.610;2023-07-22T03:13:35;13.80;99.90
25320;DHT22;13256;49.012;8.610;2023-07-22T03:16:01;13.70;99.90
25320;DHT22;13256;49.012;8.610;2023-07-22T03:18:32;13.70;99.90
25320;DHT22;13256;49.012;8.610;2023-07-22T03:20:59;13.60;99.90
25320;DHT22;13256;49.012;8.610;2023-07-22T03:23:26;13.60;99.90
25320;DHT22;13256;49.012;8.610;2023-07-22T03:25:53;13.60;99.90
25320;DHT22;13256;49.012;8.610;2023-07-22T03:28:23;13.60;99.90
25320;DHT22;13256;49.012;8.610;2023-07-22T03:30:49;13.60;99.90
25320;DHT22;13256;49.012;8.610;2023-07-22T03:33:19;13.70;99.90
25320;DHT22;13256;49.012;8.610;2023-07-22T03:35:46;13.80;99.90
25320;DHT22;13256;49.012;8.610;2023-07-22T03:38:13;13.80;99.90
25320;DHT22;13256;49.012;8.610;2023-07-22T03:40:41;13.90;99.90
25320;DHT22;13256;49.012;8.610;2023-07-22T03:43:08;13.90;99.90
25320;DHT22;13256;49.012;8.610;2023-07-22T03:45:37;13.90;99.90
25320;DHT22;13256;49.012;8.610;2023-07-22T03:48:08;13.70;99.90
25320;DHT22;13256;49.012;8.610;2023-07-22T03:50:37;13.70;99.90
25320;DHT22;13256;49.012;8.610;2023-07-22T03:53:04;13.70;99.90
25320;DHT22;13256;49.012;8.610;2023-07-22T03:55:31;13.60;99.90
25320;DHT22;13256;49.012;8.610;2023-07-22T03:58:04;13.60;99.90
25320;DHT22;13256;49.012;8.610;2023-07-22T04:00:33;13.50;99.90
25320;DHT22;13256;49.012;8.610;2023-07-22T04:03:03;13.50;99.90
25320;DHT22;13256;49.012;8.610;2023-07-22T04:05:30;13.50;99.90
25320;DHT22;13256;49.012;8.610;2023-07-22T04:07:57;13.50;99.90
25320;DHT22;13256;49.012;8.610;2023-07-22T04:10:24;13.50;99.90
25320;DHT22;13256;49.012;8.610;2023-07-22T04:12:51;13.50;99.90
25320;DHT22;13256;49.012;8.610;2023-07-22T04:15:18;13.40;99.90
25320;DHT22;13256;49.012;8.610;2023-07-22T04:17:45;13.50;99.90
25320;DHT22;13256;49.012;8.610;2023-07-22T04:20:17;13.50;99.90
25320;DHT22;13256;49.012;8.610;2023-07-22T04:22:49;13.50;99.90
25320;DHT22;13256;49.012;8.610;2023-07-22T04:25:20;13.60;99.90
25320;DHT22;13256;49.012;8.610;2023-07-22T04:27:53;13.50;99.90
25320;DHT22;13256;49.012;8.610;2023-07-22T04:30:31;13.60;99.90
25320;DHT22;13256;49.012;8.610;2023-07-22T04:33:03;13.60;99.90
25320;DHT22;13256;49.012;8.610;2023-07-22T04:35:40;13.60;99.90
25320;DHT22;13256;49.012;8.610;2023-07-22T04:38:10;13.50;99.90
25320;DHT22;13256;49.012;8.610;2023-07-22T04:40:49;13.50;99.90
25320;DHT22;13256;49.012;8.610;2023-07-22T04:43:16;13.50;99.90
25320;DHT22;13256;49.012;8.610;2023-07-22T04:45:45;13.50;99.90
25320;DHT22;13256;49.012;8.610;2023-07-22T04:48:20;13.40;99.90
25320;DHT22;13256;49.012;8.610;2023-07-22T04:50:47;13.50;99.90
25320;DHT22;13256;49.012;8.610;2023-07-22T04:53:18;13.50;99.90
25320;DHT22;13256;49.012;8.610;2023-07-22T04:55:45;13.60;99.90
25320;DHT22;13256;49.012;8.610;2023-07-22T04:58:14;13.60;99.90
25320;DHT22;13256;49.012;8.610;2023-07-22T05:00:43;13.60;99.90
25320;DHT22;13256;49.012;8.610;2023-07-22T05:03:15;13.70;99.90
25320;DHT22;13256;49.012;8.610;2023-07-22T05:05:42;13.60;99.90
25320;DHT22;13256;49.012;8.610;2023-07-22T05:08:14;13.70;99.90
25320;DHT22;13256;49.012;8.610;2023-07-22T05:10:46;13.70;99.90
25320;DHT22;13256;49.012;8.610;2023-07-22T05:13:15;13.60;99.90
25320;DHT22;13256;49.012;8.610;2023-07-22T05:15:44;13.70;99.90
25320;DHT22;13256;49.012;8.610;2023-07-22T05:18:15;13.70;99.90
25320;DHT22;13256;49.012;8.610;2023-07-22T05:20:47;13.70;99.90
25320;DHT22;13256;49.012;8.610;2023-07-22T05:23:14;13.80;99.90
25320;DHT22;13256;49.012;8.610;2023-07-22T05:25:40;13.80;99.90
25320;DHT22;13256;49.012;8.610;2023-07-22T05:28:07;13.90;99.90
25320;DHT22;13256;49.012;8.610;2023-07-22T05:30:37;13.90;99.90
25320;DHT22;13256;49.012;8.610;2023-07-22T05:33:08;14.00;99.90
25320;DHT22;13256;49.012;8.610;2023-07-22T05:35:38;14.00;99.90
25320;DHT22;13256;49.012;8.610;2023-07-22T05:38:08;14.10;99.90
25320;DHT22;13256;49.012;8.610;2023-07-22T05:40:37;14.20;99.90
25320;DHT22;13256;49.012;8.610;2023-07-22T05:43:04;14.30;99.90
25320;DHT22;13256;49.012;8.610;2023-07-22T05:45:30;14.40;99.90
25320;DHT22;13256;49.012;8.610;2023-07-22T05:48:01;14.50;99.90
25320;DHT22;13256;49.012;8.610;2023-07-22T05:50:30;14.60;99.90
25320;DHT22;13256;49.012;8.610;2023-07-22T05:53:02;14.70;99.90
25320;DHT22;13256;49.012;8.610;2023-07-22T05:55:35;14.80;99.90
25320;DHT22;13256;49.012;8.610;2023-07-22T05:58:03;14.90;99.90
25320;DHT22;13256;49.012;8.610;2023-07-22T06:03:56;15.30;99.90
25320;DHT22;13256;49.012;8.610;2023-07-22T06:06:23;15.50;99.90
25320;DHT22;13256;49.012;8.610;2023-07-22T06:08:57;15.60;99.90
25320;DHT22;13256;49.012;8.610;2023-07-22T06:11:29;15.70;99.90
25320;DHT22;13256;49.012;8.610;2023-07-22T06:13:58;15.90;99.90
25320;DHT22;13256;49.012;8.610;2023-07-22T06:16:24;16.00;99.90
25320;DHT22;13256;49.012;8.610;2023-07-22T06:18:52;16.10;99.90
25320;DHT22;13256;49.012;8.610;2023-07-22T06:21:18;16.20;99.90
25320;DHT22;13256;49.012;8.610;2023-07-22T06:23:47;16.30;99.90
25320;DHT22;13256;49.012;8.610;2023-07-22T06:26:16;16.40;99.90
25320;DHT22;13256;49.012;8.610;2023-07-22T06:28:45;16.50;99.90
25320;DHT22;13256;49.012;8.610;2023-07-22T06:31:15;16.60;99.90
25320;DHT22;13256;49.012;8.610;2023-07-22T06:33:48;16.60;99.90
25320;DHT22;13256;49.012;8.610;2023-07-22T06:36:15;16.60;99.90
25320;DHT22;13256;49.012;8.610;2023-07-22T06:38:49;16.60;99.90
25320;DHT22;13256;49.012;8.610;2023-07-22T06:41:23;16.60;99.90
25320;DHT22;13256;49.012;8.610;2023-07-22T06:43:52;16.60;99.90
25320;DHT22;13256;49.012;8.610;2023-07-22T06:55:04;17.00;99.90
25320;DHT22;13256;49.012;8.610;2023-07-22T06:57:33;17.10;99.90
25320;DHT22;13256;49.012;8.610;2023-07-22T07:00:00;17.20;99.90
25320;DHT22;13256;49.012;8.610;2023-07-22T07:02:27;17.30;99.90
25320;DHT22;13256;49.012;8.610;2023-07-22T07:04:56;17.40;99.90
25320;DHT22;13256;49.012;8.610;2023-07-22T07:07:25;17.50;99.90
25320;DHT22;13256;49.012;8.610;2023-07-22T07:09:58;17.60;99.90
25320;DHT22;13256;49.012;8.610;2023-07-22T07:12:24;17.70;99.90
25320;DHT22;13256;49.012;8.610;2023-07-22T07:14:54;17.80;99.90
25320;DHT22;13256;49.012;8.610;2023-07-22T07:17:23;17.80;99.90
25320;DHT22;13256;49.012;8.610;2023-07-22T07:19:50;17.90;99.90
25320;DHT22;13256;49.012;8.610;2023-07-22T07:22:17;18.00;99.90
25320;DHT22;13256;49.012;8.610;2023-07-22T07:24:50;18.20;99.90
25320;DHT22;13256;49.012;8.610;2023-07-22T07:27:17;18.30;99.90
25320;DHT22;13256;49.012;8.610;2023-07-22T07:29:46;18.50;99.90
25320;DHT22;13256;49.012;8.610;2023-07-22T07:32:23;18.60;99.90
25320;DHT22;13256;49.012;8.610;2023-07-22T07:34:51;18.70;99.90
25320;DHT22;13256;49.012;8.610;2023-07-22T07:37:20;18.80;99.90
25320;DHT22;13256;49.012;8.610;2023-07-22T07:39:50;19.00;99.90
25320;DHT22;13256;49.012;8.610;2023-07-22T07:42:18;19.20;99.90
25320;DHT22;13256;49.012;8.610;2023-07-22T07:44:47;19.40;99.90
25320;DHT22;13256;49.012;8.610;2023-07-22T07:47:13;19.60;99.90
25320;DHT22;13256;49.012;8.610;2023-07-22T07:49:48;19.80;99.90
25320;DHT22;13256;49.012;8.610;2023-07-22T07:52:15;19.90;99.90
25320;DHT22;13256;49.012;8.610;2023-07-22T07:54:42;20.10;99.90
25320;DHT22;13256;49.012;8.610;2023-07-22T07:57:10;20.30;99.90
25320;DHT22;13256;49.012;8.610;2023-07-22T07:59:38;20.50;99.90
25320;DHT22;13256;49.012;8.610;2023-07-22T08:02:14;20.70;99.90
25320;DHT22;13256;49.012;8.610;2023-07-22T08:04:48;20.90;99.90
25320;DHT22;13256;49.012;8.610;2023-07-22T08:07:17;21.20;99.90
25320;DHT22;13256;49.012;8.610;2023-07-22T08:09:46;21.30;99.90
25320;DHT22;13256;49.012;8.610;2023-07-22T08:12:16;21.40;99.90
25320;DHT22;13256;49.012;8.610;2023-07-22T08:14:45;21.60;99.90
25320;DHT22;13256;49.012;8.610;2023-07-22T08:17:13;21.80;99.90
25320;DHT22;13256;49.012;8.610;2023-07-22T08:19:42;22.00;99.90
25320;DHT22;13256;49.012;8.610;2023-07-22T08:22:08;22.10;99.90
25320;DHT22;13256;49.012;8.610;2023-07-22T08:24:35;22.20;99.90
25320;DHT22;13256;49.012;8.610;2023-07-22T08:27:10;22.30;99.90
25320;DHT22;13256;49.012;8.610;2023-07-22T08:29:37;22.30;99.90
25320;DHT22;13256;49.012;8.610;2023-07-22T08:32:06;22.10;99.90
25320;DHT22;13256;49.012;8.610;2023-07-22T08:34:34;22.00;99.90
25320;DHT22;13256;49.012;8.610;2023-07-22T08:37:01;21.90;99.90
25320;DHT22;13256;49.012;8.610;2023-07-22T08:39:28;21.80;99.90
25320;DHT22;13256;49.012;8.610;2023-07-22T08:42:00;21.70;99.90
25320;DHT22;13256;49.012;8.610;2023-07-22T08:44:33;21.70;99.90
25320;DHT22;13256;49.012;8.610;2023-07-22T08:47:05;21.90;99.90
25320;DHT22;13256;49.012;8.610;2023-07-22T08:49:37;22.20;99.90
25320;DHT22;13256;49.012;8.610;2023-07-22T08:52:11;22.60;99.90
25320;DHT22;13256;49.012;8.610;2023-07-22T08:54:39;23.00;99.90
25320;DHT22;13256;49.012;8.610;2023-07-22T08:57:07;23.20;99.90
25320;DHT22;13256;49.012;8.610;2023-07-22T08:59:36;23.40;99.90
25320;DHT22;13256;49.012;8.610;2023-07-22T09:02:05;23.40;99.90
25320;DHT22;13256;49.012;8.610;2023-07-22T09:04:44;23.50;99.90
25320;DHT22;13256;49.012;8.610;2023-07-22T09:07:15;23.70;99.90
25320;DHT22;13256;49.012;8.610;2023-07-22T09:09:44;23.80;99.90
25320;DHT22;13256;49.012;8.610;2023-07-22T09:12:14;23.80;99.90
25320;DHT22;13256;49.012;8.610;2023-07-22T09:14:43;23.90;99.90
25320;DHT22;13256;49.012;8.610;2023-07-22T09:17:13;24.10;99.90
25320;DHT22;13256;49.012;8.610;2023-07-22T09:19:45;24.40;99.90
25320;DHT22;13256;49.012;8.610;2023-07-22T09:22:12;24.60;99.90
25320;DHT22;13256;49.012;8.610;2023-07-22T09:24:43;24.80;99.90
25320;DHT22;13256;49.012;8.610;2023-07-22T09:27:11;25.00;99.90
25320;DHT22;13256;49.012;8.610;2023-07-22T09:29:38;25.30;99.90
25320;DHT22;13256;49.012;8.610;2023-07-22T09:32:11;25.50;99.30
25320;DHT22;13256;49.012;8.610;2023-07-22T09:34:54;25.30;99.60
25320;DHT22;13256;49.012;8.610;2023-07-22T09:37:22;25.00;99.40
25320;DHT22;13256;49.012;8.610;2023-07-22T09:39:57;25.00;99.10
25320;DHT22;13256;49.012;8.610;2023-07-22T09:42:28;24.70;99.60
25320;DHT22;13256;49.012;8.610;2023-07-22T09:44:58;24.60;99.10
25320;DHT22;13256;49.012;8.610;2023-07-22T09:47:43;24.60;98.80
25320;DHT22;13256;49.012;8.610;2023-07-22T09:50:18;24.70;97.40
25320;DHT22;13256;49.012;8.610;2023-07-22T09:52:53;24.60;97.10
25320;DHT22;13256;49.012;8.610;2023-07-22T09:55:21;24.50;96.40
25320;DHT22;13256;49.012;8.610;2023-07-22T09:57:57;24.40;97.90
25320;DHT22;13256;49.012;8.610;2023-07-22T10:00:29;24.70;96.80
25320;DHT22;13256;49.012;8.610;2023-07-22T10:03:00;25.10;97.80
25320;DHT22;13256;49.012;8.610;2023-07-22T10:05:28;25.50;96.80
25320;DHT22;13256;49.012;8.610;2023-07-22T10:08:02;25.80;95.10
25320;DHT22;13256;49.012;8.610;2023-07-22T10:10:38;26.00;95.30
25320;DHT22;13256;49.012;8.610;2023-07-22T10:13:06;26.40;95.40
25320;DHT22;13256;49.012;8.610;2023-07-22T10:15:36;26.60;94.40
25320;DHT22;13256;49.012;8.610;2023-07-22T10:18:05;26.80;92.40
25320;DHT22;13256;49.012;8.610;2023-07-22T10:20:34;26.70;93.30
25320;DHT22;13256;49.012;8.610;2023-07-22T10:23:06;26.80;92.90
25320;DHT22;13256;49.012;8.610;2023-07-22T10:25:39;26.60;91.80
25320;DHT22;13256;49.012;8.610;2023-07-22T10:28:12;26.50;92.10
25320;DHT22;13256;49.012;8.610;2023-07-22T10:30:40;26.70;92.40
25320;DHT22;13256;49.012;8.610;2023-07-22T10:33:12;27.00;92.10
25320;DHT22;13256;49.012;8.610;2023-07-22T10:35:43;27.10;91.20
25320;DHT22;13256;49.012;8.610;2023-07-22T10:38:15;27.00;90.00
25320;DHT22;13256;49.012;8.610;2023-07-22T10:40:56;27.00;89.00
25320;DHT22;13256;49.012;8.610;2023-07-22T10:43:34;27.10;87.80
25320;DHT22;13256;49.012;8.610;2023-07-22T10:46:12;27.00;89.20
25320;DHT22;13256;49.012;8.610;2023-07-22T10:48:40;26.70;89.90
25320;DHT22;13256;49.012;8.610;2023-07-22T10:51:11;26.90;88.60
25320;DHT22;13256;49.012;8.610;2023-07-22T10:53:46;26.90;87.60
25320;DHT22;13256;49.012;8.610;2023-07-22T10:56:23;27.00;86.50
25320;DHT22;13256;49.012;8.610;2023-07-22T11:12:17;26.80;86.70
25320;DHT22;13256;49.012;8.610;2023-07-22T11:15:14;27.20;83.90
25320;DHT22;13256;49.012;8.610;2023-07-22T11:17:41;27.60;82.40
25320;DHT22;13256;49.012;8.610;2023-07-22T11:20:14;28.00;80.00
25320;DHT22;13256;49.012;8.610;2023-07-22T11:22:43;28.30;80.50
25320;DHT22;13256;49.012;8.610;2023-07-22T11:25:19;28.40;81.80
25320;DHT22;13256;49.012;8.610;2023-07-22T11:27:47;28.50;79.70
25320;DHT22;13256;49.012;8.610;2023-07-22T11:30:14;28.60;77.80
25320;DHT22;13256;49.012;8.610;2023-07-22T11:32:44;28.30;76.00
25320;DHT22;13256;49.012;8.610;2023-07-22T11:35:28;28.10;77.50
25320;DHT22;13256;49.012;8.610;2023-07-22T11:38:02;28.10;79.40
25320;DHT22;13256;49.012;8.610;2023-07-22T11:40:33;27.80;79.50
25320;DHT22;13256;49.012;8.610;2023-07-22T11:43:02;27.50;79.10
25320;DHT22;13256;49.012;8.610;2023-07-22T11:45:30;27.50;81.00
25320;DHT22;13256;49.012;8.610;2023-07-22T11:48:00;27.40;81.50
25320;DHT22;13256;49.012;8.610;2023-07-22T11:50:53;27.50;81.50
25320;DHT22;13256;49.012;8.610;2023-07-22T12:08:06;27.30;80.70
25320;DHT22;13256;49.012;8.610;2023-07-22T12:10:33;27.50;81.60
25320;DHT22;13256;49.012;8.610;2023-07-22T12:13:01;27.70;79.10
25320;DHT22;13256;49.012;8.610;2023-07-22T12:15:30;27.90;80.50
25320;DHT22;13256;49.012;8.610;2023-07-22T12:18:01;28.00;79.20
25320;DHT22;13256;49.012;8.610;2023-07-22T12:20:33;28.10;77.20
25320;DHT22;13256;49.012;8.610;2023-07-22T12:23:03;28.30;76.20
25320;DHT22;13256;49.012;8.610;2023-07-22T12:25:32;28.40;75.10
25320;DHT22;13256;49.012;8.610;2023-07-22T12:28:01;28.10;74.40
25320;DHT22;13256;49.012;8.610;2023-07-22T12:30:31;27.60;74.80
25320;DHT22;13256;49.012;8.610;2023-07-22T12:32:59;27.50;77.90
25320;DHT22;13256;49.012;8.610;2023-07-22T12:35:25;27.70;78.80
25320;DHT22;13256;49.012;8.610;2023-07-22T12:37:52;27.90;77.00
25320;DHT22;13256;49.012;8.610;2023-07-22T12:40:21;28.20;75.80
25320;DHT22;13256;49.012;8.610;2023-07-22T12:42:50;28.50;73.70
25320;DHT22;13256;49.012;8.610;2023-07-22T12:45:19;28.60;75.20
25320;DHT22;13256;49.012;8.610;2023-07-22T12:47:46;28.20;72.70
25320;DHT22;13256;49.012;8.610;2023-07-22T12:50:16;28.10;71.10
25320;DHT22;13256;49.012;8.610;2023-07-22T12:53:10;28.00;70.70
25320;DHT22;13256;49.012;8.610;2023-07-22T12:55:37;28.40;73.90
25320;DHT22;13256;49.012;8.610;2023-07-22T12:58:06;28.90;74.40
25320;DHT22;13256;49.012;8.610;2023-07-22T13:00:34;29.50;71.00
25320;DHT22;13256;49.012;8.610;2023-07-22T13:03:01;29.60;67.40
25320;DHT22;13256;49.012;8.610;2023-07-22T13:05:28;29.40;66.50
25320;DHT22;13256;49.012;8.610;2023-07-22T13:07:55;29.40;68.80
25320;DHT22;13256;49.012;8.610;2023-07-22T13:10:27;29.10;67.60
25320;DHT22;13256;49.012;8.610;2023-07-22T13:13:05;28.50;68.20
25320;DHT22;13256;49.012;8.610;2023-07-22T13:15:32;28.70;70.80
25320;DHT22;13256;49.012;8.610;2023-07-22T13:18:00;29.10;71.20
25320;DHT22;13256;49.012;8.610;2023-07-22T13:20:29;29.40;68.70
25320;DHT22;13256;49.012;8.610;2023-07-22T13:22:57;29.60;65.80
25320;DHT22;13256;49.012;8.610;2023-07-22T13:25:24;29.40;63.40
25320;DHT22;13256;49.012;8.610;2023-07-22T13:27:53;29.00;62.80
25320;DHT22;13256;49.012;8.610;2023-07-22T13:30:27;28.50;64.50
25320;DHT22;13256;49.012;8.610;2023-07-22T13:33:09;28.20;66.70
25320;DHT22;13256;49.012;8.610;2023-07-22T13:35:39;28.40;66.70
25320;DHT22;13256;49.012;8.610;2023-07-22T13:38:12;28.40;65.70
25320;DHT22;13256;49.012;8.610;2023-07-22T13:40:41;28.50;67.10
25320;DHT22;13256;49.012;8.610;2023-07-22T13:43:08;28.50;67.10
25320;DHT22;13256;49.012;8.610;2023-07-22T13:45:36;28.50;66.60
25320;DHT22;13256;49.012;8.610;2023-07-22T13:48:05;28.60;63.80
25320;DHT22;13256;49.012;8.610;2023-07-22T13:50:32;28.80;64.30
25320;DHT22;13256;49.012;8.610;2023-07-22T13:53:03;28.90;66.60
25320;DHT22;13256;49.012;8.610;2023-07-22T13:55:31;29.00;64.80
25320;DHT22;13256;49.012;8.610;2023-07-22T13:58:04;29.00;63.10
25320;DHT22;13256;49.012;8.610;2023-07-22T14:00:31;29.00;64.30
25320;DHT22;13256;49.012;8.610;2023-07-22T14:03:03;29.00;66.30
25320;DHT22;13256;49.012;8.610;2023-07-22T14:05:30;29.00;65.80
25320;DHT22;13256;49.012;8.610;2023-07-22T14:07:57;29.00;66.60
25320;DHT22;13256;49.012;8.610;2023-07-22T14:10:25;29.10;65.60
25320;DHT22;13256;49.012;8.610;2023-07-22T14:12:53;28.70;59.80
25320;DHT22;13256;49.012;8.610;2023-07-22T14:15:24;28.20;62.60
25320;DHT22;13256;49.012;8.610;2023-07-22T14:18:00;27.90;63.00
25320;DHT22;13256;49.012;8.610;2023-07-22T14:20:37;27.90;66.10
25320;DHT22;13256;49.012;8.610;2023-07-22T14:23:04;28.20;67.60
25320;DHT22;13256;49.012;8.610;2023-07-22T14:26:03;28.50;65.00
25320;DHT22;13256;49.012;8.610;2023-07-22T14:28:41;28.50;63.40
25320;DHT22;13256;49.012;8.610;2023-07-22T14:31:08;28.50;64.10
25320;DHT22;13256;49.012;8.610;2023-07-22T14:33:35;28.50;64.40
25320;DHT22;13256;49.012;8.610;2023-07-22T14:36:02;28.30;62.30
25320;DHT22;13256;49.012;8.610;2023-07-22T14:38:33;28.20;64.20
25320;DHT22;13256;49.012;8.610;2023-07-22T14:41:02;28.30;65.50
25320;DHT22;13256;49.012;8.610;2023-07-22T14:43:33;28.30;64.40
25320;DHT22;13256;49.012;8.610;2023-07-22T14:46:09;28.20;63.20
25320;DHT22;13256;49.012;8.610;2023-07-22T14:48:46;28.00;63.50
25320;DHT22;13256;49.012;8.610;2023-07-22T14:51:16;27.90;64.90
25320;DHT22;13256;49.012;8.610;2023-07-22T14:53:46;28.20;64.80
25320;DHT22;13256;49.012;8.610;2023-07-22T14:56:18;28.40;66.10
25320;DHT22;13256;49.012;8.610;2023-07-22T14:59:14;28.40;65.50
25320;DHT22;13256;49.012;8.610;2023-07-22T15:01:44;28.50;65.30
25320;DHT22;13256;49.012;8.610;2023-07-22T15:04:19;28.60;64.90
25320;DHT22;13256;49.012;8.610;2023-07-22T15:07:01;28.50;62.40
25320;DHT22;13256;49.012;8.610;2023-07-22T15:09:51;28.30;63.70
25320;DHT22;13256;49.012;8.610;2023-07-22T15:12:25;28.30;63.30
25320;DHT22;13256;49.012;8.610;2023-07-22T15:15:03;28.30;63.40
25320;DHT22;13256;49.012;8.610;2023-07-22T15:17:43;28.20;63.00
25320;DHT22;13256;49.012;8.610;2023-07-22T15:20:13;28.10;60.70
25320;DHT22;13256;49.012;8.610;2023-07-22T15:22:50;28.10;64.20
25320;DHT22;13256;49.012;8.610;2023-07-22T15:25:30;28.20;64.30
25320;DHT22;13256;49.012;8.610;2023-07-22T15:28:09;28.30;63.50
25320;DHT22;13256;49.012;8.610;2023-07-22T15:30:43;28.50;63.10
25320;DHT22;13256;49.012;8.610;2023-07-22T15:33:25;28.60;62.80
25320;DHT22;13256;49.012;8.610;2023-07-22T15:35:53;28.60;62.00
25320;DHT22;13256;49.012;8.610;2023-07-22T15:38:56;28.50;62.70
25320;DHT22;13256;49.012;8.610;2023-07-22T15:41:23;28.40;62.30
25320;DHT22;13256;49.012;8.610;2023-07-22T15:43:50;28.10;60.50
25320;DHT22;13256;49.012;8.610;2023-07-22T15:46:20;27.90;61.00
25320;DHT22;13256;49.012;8.610;2023-07-22T15:48:47;27.80;62.00
25320;DHT22;13256;49.012;8.610;2023-07-22T15:51:16;27.70;61.60
25320;DHT22;13256;49.012;8.610;2023-07-22T15:53:44;27.70;62.70
25320;DHT22;13256;49.012;8.610;2023-07-22T15:56:10;27.60;61.60
25320;DHT22;13256;49.012;8.610;2023-07-22T15:58:41;27.60;60.70
25320;DHT22;13256;49.012;8.610;2023-07-22T16:01:08;27.50;62.30
25320;DHT22;13256;49.012;8.610;2023-07-22T16:03:36;27.60;64.00
25320;DHT22;13256;49.012;8.610;2023-07-22T16:06:06;27.80;63.20
25320;DHT22;13256;49.012;8.610;2023-07-22T16:08:57;27.80;62.30
25320;DHT22;13256;49.012;8.610;2023-07-22T16:11:32;27.90;63.20
25320;DHT22;13256;49.012;8.610;2023-07-22T16:14:03;27.90;63.70
25320;DHT22;13256;49.012;8.610;2023-07-22T16:16:36;27.90;63.80
25320;DHT22;13256;49.012;8.610;2023-07-22T16:19:14;27.90;63.40
25320;DHT22;13256;49.012;8.610;2023-07-22T16:32:14;27.30;61.80
25320;DHT22;13256;49.012;8.610;2023-07-22T16:49:00;27.00;64.40
25320;DHT22;13256;49.012;8.610;2023-07-22T16:51:30;26.80;61.60
25320;DHT22;13256;49.012;8.610;2023-07-22T16:54:00;26.60;63.00
25320;DHT22;13256;49.012;8.610;2023-07-22T17:11:03;26.20;65.70
25320;DHT22;13256;49.012;8.610;2023-07-22T17:13:34;26.10;66.80
25320;DHT22;13256;49.012;8.610;2023-07-22T17:16:00;26.10;66.30
25320;DHT22;13256;49.012;8.610;2023-07-22T17:25:03;25.80;66.40
25320;DHT22;13256;49.012;8.610;2023-07-22T17:27:39;25.80;67.60
25320;DHT22;13256;49.012;8.610;2023-07-22T17:30:07;25.80;65.40
25320;DHT22;13256;49.012;8.610;2023-07-22T17:32:34;25.70;67.50
25320;DHT22;13256;49.012;8.610;2023-07-22T17:35:30;25.60;67.80
25320;DHT22;13256;49.012;8.610;2023-07-22T17:38:01;25.60;68.70
25320;DHT22;13256;49.012;8.610;2023-07-22T17:44:14;25.50;67.80
25320;DHT22;13256;49.012;8.610;2023-07-22T17:46:41;25.50;68.20
25320;DHT22;13256;49.012;8.610;2023-07-22T17:49:35;25.50;68.10
25320;DHT22;13256;49.012;8.610;2023-07-22T17:52:08;25.40;68.00
25320;DHT22;13256;49.012;8.610;2023-07-22T17:54:36;25.40;68.90
25320;DHT22;13256;49.012;8.610;2023-07-22T17:57:10;25.30;68.70
25320;DHT22;13256;49.012;8.610;2023-07-22T17:59:40;25.30;68.70